Regionale Übersicht

METAR und TAF

Sonntag, 25. Oktober 2020 - 20:25 Uhr

Beobachtete horizontale meteorologische Sicht an ausgewählten Flughäfen. Die vollständigen METARs und Flugwettervorhersagen (TAFs) sind verfügbar, wenn Sie auf das entsprechende Symbol mit der ICAO-Flughafenkennung klicken.

  • Luxemburg (ELLX)

    Taf: TAF AMD ELLX 251700Z 2518/2624 19008KT 9999 BKN040 PROB30 TEMPO 2518/2605 4500 -RA BR BKN009 BECMG 2609/2611 21010KT PROB30 TEMPO 2614/2624 SHRA SCT020TCU=

    Metar: METAR ELLX 251850Z 19006KT 9999 FEW005 SCT013 BKN090 09/08 Q1004 NOSIG=

  • Spangdahlem (ETAD)

    Taf: TAF ETAD 251900Z 2519/2701 19012KT 9000 -SHRA SCT013 BKN020 QNH2962INS BECMG 2522/2523 25008KT 5000 -SHRA BR BKN010 QNH2960INS TEMPO 2601/2604 3600 BR BKN007 BECMG 2606/2607 24012KT 5000 BR SCT007 BKN010 QNH2961INS BECMG 2611/2612 23010G20KT 9999 NSW SCT010 BKN020 QNH2963INS BECMG 2615/2616 22009KT 9999 SCT015 BKN025 QNH2964INS TX13/2614Z TN08/2606Z LAST NO AMDS AFT 2519=

    Metar: METAR ETAD 251856Z AUTO 20012KT 9999 SCT024 10/09 A2965 RMK AO2 SLP032 T00970094 $=

  • Metz/Nancy (LFJL)

    Taf: TAF LFJL 251700Z 2518/2618 21010KT 9999 FEW015 BKN040 TEMPO 2518/2603 4500 -RA BKN013 PROB40 TEMPO 2518/2520 28012KT 2500 RA BKN006 FEW030TCU TEMPO 2603/2610 BKN013 PROB40 TEMPO 2614/2618 -SHRA=

    Metar: METAR LFJL 251900Z AUTO 16008KT 9999 -RA NSC 10/09 Q1005 TEMPO 28012KT 4500 -RA BKN006 FEW030TCU=

  • Saarbrücken/Intl (EDDR)

    Taf: TAF EDDR 251700Z 2518/2618 24005KT 9999 BKN035 TEMPO 2518/2521 RA BKN012 BECMG 2521/2524 BKN012 TEMPO 2521/2610 4000 RA BKN008 BECMG 2608/2610 24010KT BECMG 2611/2613 BKN030=

    Metar: METAR EDDR 251850Z 16005KT 130V200 9999 -RA FEW045 10/09 Q1005 TEMPO RA=

  • Hahn (EDFH)

    Taf: TAF EDFH 251700Z 2518/2618 24008KT 9999 SCT012 TEMPO 2518/2522 RA BKN012 BECMG 2522/2524 BKN010 TEMPO 2522/2610 3500 RA BKN006 BECMG 2612/2614 BKN020=

    Metar: METAR EDFH 251850Z 22008KT 9999 -RA FEW030 SCT052 09/07 Q1004=

  • Ramstein (ETAR)

    Taf: TAF ETAR 251800Z 2518/2624 25009KT 9000 -SHRA BKN025 OVC035 610505 QNH2965INS TEMPO 2518/2601 26010G20KT 510004 BECMG 2600/2601 25009KT 6000 -SHRA SCT007 OVC015 610609 QNH2961INS BECMG 2608/2609 23009KT 9000 -SHRA SCT015 BKN020 610609 QNH2967INS BECMG 2611/2612 24010G20KT 9999 NSW SCT025 BKN035 510004 QNH2966INS BECMG 2615/2616 22009KT 9999 SCT030 BKN150 QNH2966INS TX10/2612Z TN08/2618Z=

    Metar: METAR ETAR 251856Z 19004KT 9999 FEW036 BKN050 11/11 A2972 RMK AO2A RAE48 SLP069 P0002 T01050105 FZRANO $=

  • Nancy/Ochey (LFSO)

    Taf: TAF LFSO 251400Z NIL=

    Metar: METAR LFSO 251900Z AUTO 14005KT 110V180 CAVOK 10/09 Q1005=

  • Liège Bierset (EBLG)

    Taf: TAF EBLG 251710Z 2518/2624 20010KT 9999 SCT024 PROB40 TEMPO 2518/2524 4500 SHRA BKN014CB PROB40 TEMPO 2617/2624 4500 SHRA BKN014CB=

    Metar: METAR EBLG 251850Z 19009KT 9999 FEW016 SCT022 BKN048 10/09 Q1002 NOSIG=

  • Saint-Dizier (LFSI)

    Taf: TAF LFSI 251400Z 2515/2615 20012KT 9999 BKN025 TEMPO 2515/2520 4000 RA BKN014 OVC025 TEMPO 2521/2607 BKN007 PROB40 TEMPO 2610/2615 4000 SHRA BKN020TCU=

    Metar: METAR LFSI 251900Z AUTO 18007KT 9999 FEW041 BKN052 OVC066 11/10 Q1004=

  • Maastricht/Zuid Limburg (EHBK)

    Taf: TAF EHBK 251707Z 2518/2624 20010KT 9999 SCT045 BECMG 2607/2610 22015G25KT BECMG 2614/2617 20012KT PROB30 TEMPO 2617/2621 7000 -SHRA RA SCT020TCU BKN025=

    Metar: METAR EHBK 251855Z AUTO 20010KT 9999 NSC 11/09 Q1002 NOSIG=

  • Köln/Köln-Bonn (EDDK)

    Taf: TAF EDDK 251700Z 2518/2624 15006KT 9999 SCT030 BECMG 2609/2611 21009KT=

    Metar: METAR EDDK 251850Z 15007KT 9999 -RA FEW024 SCT037 12/10 Q1003 NOSIG=

  • Charleroi (EBCI)

    Taf: TAF EBCI 251710Z 2518/2624 20010KT 9999 SCT024 PROB40 TEMPO 2518/2524 4500 SHRA BKN014CB PROB40 TEMPO 2617/2624 4500 SHRA BKN014CB=

    Metar: METAR EBCI 251850Z 20010KT 9999 FEW013 10/08 Q1002 NOSIG=

  • Wiesbaden (ETOU)

    Taf: nil

    Metar: METAR ETOU 251856Z AUTO 24004KT 9999 -RA FEW065 12/11 A2969 RMK AO2 SLP058 P0003 T01170108 $=

  • Karlsruhe/Baden-Baden (EDSB)

    Taf: TAF AMD EDSB 251905Z 2519/2618 24005KT 9999 SCT045 TEMPO 2519/2611 RA PROB30 TEMPO 2602/2606 BKN010 BECMG 2609/2611 22010KT=

    Metar: METAR EDSB 251850Z 32006KT 280V360 9000 RA FEW038 OVC063 13/10 Q1006=

  • Chalons/Vatry (LFOK)

    Taf: TAF LFOK 251700Z 2518/2618 21015KT 9999 BKN017 TEMPO 2518/2522 19015G25KT 3000 RA BKN007 TEMPO 2600/2608 BKN007 TEMPO 2616/2618 3000 SHRA BKN007 SCT025TCU=

    Metar: METAR LFOK 251900Z AUTO 18012KT 9999 FEW020 SCT046 BKN058 11/10 Q1004 TEMPO 19015G25KT 3000 RA BKN007=

  • Frankfurt/Main (EDDF)

    Taf: TAF AMD EDDF 251806Z 2518/2624 24008KT 9999 BKN045 TEMPO 2518/2523 RA TEMPO 2523/2613 4500 RA BKN014 BECMG 2615/2617 SCT040=

    Metar: METAR EDDF 251850Z 16006KT 9999 -RA NSC 11/11 Q1006 TEMPO RA=

  • Brüssel (EBBR)

    Taf: TAF EBBR 251710Z 2518/2624 20010KT 9999 SCT024 PROB40 TEMPO 2518/2524 4500 SHRA BKN014CB PROB40 TEMPO 2616/2624 4500 SHRA BKN014CB=

    Metar: METAR EBBR 251850Z 19007KT CAVOK 10/08 Q1001 NOSIG=

  • Düsseldorf (EDDL)

    Taf: TAF EDDL 251700Z 2518/2624 18010KT 9999 FEW030=

    Metar: METAR EDDL 251850Z 18007KT 9999 FEW025 13/10 Q1002 NOSIG=

  • Luxeuil (LFSX)

    Taf: TAF LFSX 251400Z NIL=

    Metar: METAR LFSX 251900Z AUTO 09002KT 5000 -RA BR BKN025/// BKN043/// OVC066/// ///TCU 12/11 Q1006=

  • Eindhoven (EHEH)

    Taf: TAF EHEH 251722Z 2518/2624 19008KT 9999 FEW015 SCT030 BKN200 BECMG 2607/2610 21015G25KT TEMPO 2607/2612 SCT015 BECMG 2614/2616 20010KT PROB40 TEMPO 2614/2624 21015G25KT 4500 SHRAGS FEW015 SCT018CB BKN025=

    Metar: METAR EHEH 251855Z AUTO 18007KT 150V210 9999 SCT029 11/09 Q1001 BLU NOSIG=

  • Niederrhein (EDLV)

    Taf: TAF EDLV 251700Z 2518/2618 18006KT 9999 SCT035 BECMG 2608/2610 20011KT=

    Metar: METAR EDLV 251850Z 20005KT CAVOK 12/09 Q1002=

  • Dortmund/Wickede (EDLW)

    Taf: TAF EDLW 251700Z 2518/2618 20009KT 9999 SCT030 PROB30 TEMPO 2518/2521 RA=

    Metar: METAR EDLW 251850Z 20011KT CAVOK 12/10 Q1002=

  • Stuttgart/Echterdingen (EDDS)

    Taf: TAF EDDS 251700Z 2518/2618 VRB03KT 9999 FEW045 TEMPO 2603/2611 4500 RA BKN012 PROB30 TEMPO 2605/2609 BKN008 BECMG 2609/2611 32008KT PROB30 TEMPO 2611/2616 RA BKN012 BECMG 2612/2614 24005KT=

    Metar: METAR EDDS 251850Z 18003KT 110V270 CAVOK 13/08 Q1007 NOSIG=

  • Basel-Mühlhausen (LFSB)

    Taf: TAF LFSB 251700Z 2518/2618 16008KT CAVOK BECMG 2519/2522 26010KT -RA BKN025 BKN050 PROB40 TEMPO 2522/2608 3000 RA BKN005 PROB40 TEMPO 2601/2603 27015G25KT BECMG 2612/2615 15005KT NSW TEMPO 2612/2618 -SHRA PROB30 TEMPO 2612/2616 FEW025TCU=

    Metar: METAR LFSB 251900Z AUTO 16006KT CAVOK 14/10 Q1006 BECMG 26010KT=

  • Lille (LFQQ)

    Taf: TAF LFQQ 251700Z 2518/2624 18012KT 9999 BKN020 TEMPO 2518/2606 3000 SHRA BKN012 SCT025CB BECMG 2607/2610 20015G25KT TEMPO 2613/2620 3000 SHRA BKN020TCU PROB30 2613/2620 1200 TSRA BKN020CB=

    Metar: METAR LFQQ 251900Z AUTO 17010KT 9999 ///TCU 11/08 Q1000 TEMPO 3000 SHRA BKN012 SCT025CB=

  • Paris/Charles de Gaulle (LFPG)

    Taf: TAF LFPG 251700Z 2518/2624 20010KT 9999 BKN010 BKN020 TX13/2615Z TN08/2606Z TEMPO 2518/2519 4000 SHRA SCT008 SCT015CB BECMG 2604/2606 CAVOK PROB40 TEMPO 2612/2616 22010G25KT PROB40 TEMPO 2616/2619 4000 SHRA SCT015CB=

    Metar: METAR LFPG 251900Z 19007KT 8000 -RA FEW032 BKN046 10/09 Q1002 TEMPO 4000 SHRA SCT015TCU=

  • Paderborn/Lippstadt (EDLP)

    Taf: TAF EDLP 251700Z 2518/2618 19008KT 9999 SCT030 TEMPO 2518/2523 RA=

    Metar: METAR EDLP 251850Z 20008KT CAVOK 12/08 Q1003=

  • Paris/Le Bourget (LFPB)

    Taf: TAF LFPB 251700Z 2518/2618 20010KT 9999 BKN010 BKN020 TEMPO 2518/2519 4000 SHRA SCT008 SCT015CB BECMG 2604/2606 CAVOK PROB40 TEMPO 2612/2616 22010G25KT PROB40 TEMPO 2616/2618 4000 SHRA SCT015CB=

    Metar: METAR LFPB 251900Z AUTO 19008KT 9999 -RA FEW016 OVC048 11/10 Q1002 BECMG BKN010 BKN020=

  • Rotterdam (EHRD)

    Taf: TAF EHRD 251712Z 2518/2624 19011KT 9999 FEW020 SCT040 PROB40 TEMPO 2518/2524 22015G25KT 5000 SHRA TSRAGS SCT015 SCT020CB BKN040 PROB30 TEMPO 2607/2611 BKN014 BECMG 2608/2611 21015G25KT PROB40 TEMPO 2615/2624 23020G30KT 5000 SHRA TSRAGS SCT015 SCT020CB BKN040 BECMG 2619/2622 22010KT=

    Metar: METAR EHRD 251855Z AUTO 18007KT 9999 -DZ FEW015CB SCT049 10/09 Q0999 RERA REDZ NOSIG=

  • Zürich/Kloten (LSZH)

    Taf: TAF LSZH 251725Z 2518/2624 VRB03KT CAVOK TX08/2610Z TN05/2623Z PROB30 2522/2602 6000 MIFG NSC BECMG 2601/2604 9999 BKN070 TEMPO 2604/2612 RA TEMPO 2607/2612 27010KT PROB40 TEMPO 2612/2620 RA=

    Metar: METAR LSZH 251850Z 14004KT CAVOK 10/09 Q1008 NOSIG=

  • Oostende/Intl (EBOS)

    Taf: TAF EBOS 251710Z 2518/2624 20012KT 9999 SCT022 PROB40 TEMPO 2518/2603 4000 SHRA TSRA BKN012CB PROB40 TEMPO 2603/2618 4500 SHRA BKN014CB TEMPO 2612/2618 20017G28KT=

    Metar: METAR EBOS 251850Z 17006KT 9999 FEW018 09/08 Q0999 NOSIG=

  • Paris/Orly (LFPO)

    Taf: TAF LFPO 251700Z 2518/2624 20010KT 9999 BKN020 TEMPO 2518/2521 4000 -SHRA BKN012 BKN014CB BECMG 2521/2524 CAVOK PROB40 TEMPO 2601/2609 BKN011 PROB30 TEMPO 2601/2608 BKN006 TEMPO 2614/2618 BKN035TCU=

    Metar: METAR LFPO 251900Z VRB02KT 9000 -RA FEW028 FEW030TCU SCT046 BKN060 11/10 Q1003 NOSIG=

  • Beauvais (LFOB)

    Taf: TAF LFOB 251700Z 2518/2618 22010KT 9999 BKN035 TEMPO 2518/2521 20015G25KT 3000 SHRA BKN010 SCT025TCU PROB30 2600/2606 BKN009 TEMPO 2613/2618 3000 SHRA BKN007 SCT030CB PROB30 2613/2618 1200 TSRA=

    Metar: METAR LFOB 251900Z AUTO 19008KT CAVOK 10/08 Q1001 TEMPO 20015G25KT 3000 SHRA BKN010 SCT025TCU=

  • Münster/Intl (EDDG)

    Taf: TAF EDDG 251700Z 2518/2618 18006KT 9999 SCT040=

    Metar: METAR EDDG 251850Z 16005KT 140V200 CAVOK 11/10 Q1002 NOSIG=

  • Illesheim (ETIK)

    Taf: nil

    Metar: METAR ETIK 251856Z AUTO 00000KT 9999 OVC120 13/11 A2974 RMK AO2 SLP073 T01250107 $=

  • Duebendorf (LSMD)

    Taf: TAF LSMD 251625Z 2517/2623 VRB03KT CAVOK PROB30 2522/2602 6000 MIFG NSC BECMG 2601/2604 9999 BKN070 TEMPO 2604/2612 RA TEMPO 2607/2613 26010KT PROB40 TEMPO 2612/2620 RA=

    Metar: METAR LSMD 251850Z AUTO 13003KT 9999NDV OVC120 11/09 Q1008 RMK=

  • Villacoublay (LFPV)

    Taf: TAF LFPV 251400Z 2515/2615 21007KT 9999 OVC011 TX13/2615Z TN07/2607Z TEMPO 2515/2521 SCT012TCU PROB40 TEMPO 2515/2518 4000 SHRA PROB30 TEMPO 2516/2518 2000 TSRA SCT015CB BECMG 2521/2523 BKN008 PROB30 TEMPO 2601/2606 BKN004 BECMG 2606/2608 SCT020 TEMPO 2611/2615 SCT020TCU=

    Metar: METAR LFPV 251900Z AUTO 20005KT 160V230 9999 FEW005 SCT054 BKN072 10/09 Q1002 TEMPO SCT012TCU=

  • Payerne (LSMP)

    Taf: TAF LSMP 251625Z 2517/2623 VRB03KT CAVOK BECMG 2518/2520 9999 BKN060 TEMPO 2600/2611 4500 RA BKN014=

    Metar: METAR LSMP 251850Z AUTO 12003KT 9999NDV SCT093 11/10 Q1007 RMK=

  • Amsterdam/Schipol (EHAM)

    Taf: TAF EHAM 251712Z 2518/2624 19011KT 9999 FEW020 SCT040 PROB40 TEMPO 2518/2524 22015G25KT 5000 SHRA TSRAGS SCT015 SCT020CB BKN040 PROB30 TEMPO 2607/2611 BKN014 BECMG 2608/2611 21015G25KT PROB40 TEMPO 2616/2624 23020G30KT 5000 SHRA TSRAGS SCT015 SCT020CB BKN040 BECMG 2619/2622 22010KT=

    Metar: METAR EHAM 251855Z 18009KT 140V210 9999 -SHRA FEW020CB 10/08 Q0999 NOSIG=

  • Emmen (LSME)

    Taf: TAF LSME 251625Z 2517/2623 VRB03KT CAVOK BECMG 2520/2523 9999 FEW050 BKN100 TEMPO 2604/2612 4500 RA BKN012 TEMPO 2607/2613 27010KT PROB40 TEMPO 2612/2620 RA=

    Metar: METAR LSME 251850Z AUTO 00000KT 9999NDV OVC110 12/09 Q1008 RMK=

  • Friedrichshafen (EDNY)

    Taf: TAF EDNY 251700Z 2518/2618 VRB02KT CAVOK TEMPO 2520/2602 3000 BR BECMG 2606/2608 25010KT PROB30 TEMPO 2607/2618 26015G25KT RA BKN010=

    Metar: METAR EDNY 251850Z AUTO 07003KT 9000 // OVC130/// 08/08 Q1008=

  • Alpnach (LSMA)

    Taf: TAF LSMA 251625Z 2517/2623 VRB03KT CAVOK BECMG 2520/2523 9999 FEW050 BKN100 PROB30 TEMPO 2601/2606 01015G25KT TEMPO 2604/2612 4500 RA BKN012 PROB40 TEMPO 2612/2620 RA=

    Metar: METAR LSMA 251850Z AUTO 17003KT 140V230 9999NDV OVC120 10/08 Q1008 RMK=

  • Meiringen (LSMM)

    Taf: TAF LSMM 251625Z 2517/2623 27008KT CAVOK PROB30 TEMPO 2517/2602 09015G25KT BECMG 2521/2524 9999 FEW050 BKN100 PROB40 TEMPO 2603/2610 27015G25KT TEMPO 2604/2621 4500 RA BKN012=

    Metar: METAR LSMM 251850Z AUTO 09003KT 040V150 9999NDV BKN110 09/07 Q1008 RMK=

  • Nürnberg (EDDN)

    Taf: TAF EDDN 251700Z 2518/2618 12004KT 9999 SCT030 BECMG 2607/2610 32007KT PROB30 TEMPO 2609/2612 BKN011=

    Metar: METAR EDDN 251850Z 12008KT CAVOK 11/08 Q1007 NOSIG=

  • Rouen (LFOP)

    Taf: TAF LFOP 251700Z 2518/2618 20010KT 9999 OVC023 TEMPO 2518/2521 20015G25KT 3000 SHRA BKN009 BKN020CB PROB30 2522/2605 BKN010 TEMPO 2605/2618 3000 SHRA BKN009 SCT030CB PROB30 2613/2618 1200 TSRA=

    Metar: METAR LFOP 251900Z AUTO 19010KT CAVOK 08/08 Q1001 TEMPO 20015G25KT 3000 SHRA BKN009 BKN020CB=

  • Evreux (LFOE)

    Taf: TAF LFOE 251854Z 2518/2615 CNL=

    Metar: METAR LFOE 251900Z AUTO 19008KT CAVOK 09/08 Q1001 TEMPO 20015G30KT 4000 SHRA SCT014 BKN030CB=

  • Erfurt/Bindersleben (EDDE)

    Taf: TAF COR EDDE 251748Z 2518/2618 19008KT CAVOK TEMPO 2607/2615 RA PROB30 TEMPO 2608/2614 4000 RADZ BKN010 BECMG 2609/2611 27005KT=

    Metar: METAR EDDE 251850Z 22007KT CAVOK 13/08 Q1005 NOSIG=